Thomaston, New York
Current Conditions -  °F | °C
As of 4:51 AM on Saturday 25 Oct 2014 (Local Time) from KLGA Reporting Station
Clear Clear  
Wind Chill: 54°   Ceiling: Unl
Heat Index: 54°   Visibility: 10mi
Dew Point: 39°   Wind: 14mph
Humidity: 57%   Direction: 310°NW
Pressure: 29.85"   Gusts: NA
Location:  40.786°N, 73.7291°W
Report Text: KLGA 250851Z 31012KT 10SM CLR 12/04 A2985 RMK AO2 SLP108 T01220039 51001
Loading
Personal Weather Stations






























Interactive Weather Map New forecast layout! Learn more

10-Day Weather Forecast

Advertisements
Track Severe Weather on mobile